Time;durP1;ratioP1;P1;durP2;ratioP2;P2;SDS_P1;SDS_P2;PMS_P1;PMS_P2;Temp;Humidity;BMP_temperature;BMP_pressure;BME280_temperature;BME280_humidity;BME280_pressure;Samples;Min_cycle;Max_cycle;Signal;HPM_P1;HPM_P2
2023/10/13 07:02:22;;;;;;;13.40;5.80;;;11.50;99.90;;;;;;5413021;23;20251;-79
2023/10/13 07:05:11;;;;;;;13.50;5.70;;;11.70;99.90;;;;;;4885381;29;20663;-80
2023/10/13 07:07:39;;;;;;;11.73;5.63;;;11.60;99.90;;;;;;4893223;29;20223;-80
2023/10/13 07:10:16;;;;;;;13.67;5.70;;;11.70;99.90;;;;;;4900638;29;20195;-81
2023/10/13 07:13:00;;;;;;;12.03;5.40;;;11.70;99.90;;;;;;4885077;29;20222;-77
2023/10/13 07:15:29;;;;;;;10.90;5.93;;;11.70;99.90;;;;;;4900432;29;20215;-78
2023/10/13 07:17:59;;;;;;;8.80;5.50;;;11.80;99.90;;;;;;4916381;29;20242;-79
2023/10/13 07:20:34;;;;;;;11.90;5.70;;;11.80;99.90;;;;;;4916530;29;20198;-78
2023/10/13 07:23:08;;;;;;;9.77;5.17;;;11.70;99.90;;;;;;4899105;29;20204;-78
2023/10/13 07:25:40;;;;;;;8.73;5.43;;;11.80;99.90;;;;;;4915344;29;20251;-81
2023/10/13 07:28:22;;;;;;;13.27;5.10;;;11.90;99.90;;;;;;4900536;29;20179;-82
2023/10/13 07:31:38;;;;;;;9.47;5.20;;;11.90;99.90;;;;;;4900737;29;20195;-89
2023/10/13 07:34:31;;;;;;;12.60;4.73;;;11.70;99.90;;;;;;4839967;29;20210;-79
2023/10/13 07:37:07;;;;;;;11.20;4.10;;;12.10;99.90;;;;;;4839385;29;20286;-80
2023/10/13 07:39:42;;;;;;;11.63;4.30;;;12.10;99.90;;;;;;4840541;29;20206;-85
2023/10/13 07:42:19;;;;;;;11.33;3.93;;;12.10;99.90;;;;;;4839803;29;20639;-79
2023/10/13 07:44:55;;;;;;;9.90;4.10;;;12.20;99.90;;;;;;4839850;29;20215;-78
2023/10/13 07:47:32;;;;;;;8.60;4.03;;;12.20;99.90;;;;;;4824440;29;20234;-78
2023/10/13 07:50:06;;;;;;;10.17;4.20;;;12.30;99.90;;;;;;4839239;29;20262;-79
2023/10/13 07:52:58;;;;;;;14.23;5.10;;;12.60;99.90;;;;;;4839338;29;20226;-79
2023/10/13 07:55:32;;;;;;;15.53;4.90;;;12.70;99.90;;;;;;4840091;29;20205;-83
2023/10/13 07:58:07;;;;;;;12.97;5.17;;;12.40;99.90;;;;;;4839575;29;20226;-79
2023/10/13 08:04:11;;;;;;;11.87;5.03;;;12.30;99.90;;;;;;4839316;29;20229;-81
2023/10/13 08:06:45;;;;;;;11.87;5.07;;;12.50;99.90;;;;;;4839078;29;20218;-78
2023/10/13 08:09:40;;;;;;;12.03;4.90;;;12.50;99.90;;;;;;4839458;29;20774;-85
2023/10/13 08:12:11;;;;;;;12.83;5.20;;;12.40;99.90;;;;;;4899754;29;20231;-85
2023/10/13 08:14:47;;;;;;;12.87;5.47;;;12.40;99.90;;;;;;4916110;29;20275;-80
2023/10/13 08:17:25;;;;;;;15.20;5.30;;;12.40;99.90;;;;;;4914781;29;20686;-82
2023/10/13 08:20:11;;;;;;;9.70;4.63;;;12.70;99.90;;;;;;4899750;29;20180;-80
2023/10/13 08:23:09;;;;;;;11.33;5.10;;;12.40;99.90;;;;;;4900277;29;20219;-78
2023/10/13 08:31:22;;;;;;;11.73;5.90;;;12.30;99.90;;;;;;4915583;29;20658;-81
2023/10/13 08:34:06;;;;;;;15.07;6.07;;;12.50;99.90;;;;;;4913183;29;20255;-79
2023/10/13 08:36:55;;;;;;;13.00;6.13;;;12.80;99.90;;;;;;4898553;29;20290;-79
2023/10/13 08:42:23;;;;;;;13.83;6.30;;;13.10;99.90;;;;;;4899509;29;20207;-78
2023/10/13 08:45:04;;;;;;;15.83;6.70;;;13.30;99.90;;;;;;4915185;29;20192;-79
2023/10/13 08:47:36;;;;;;;15.47;7.47;;;13.50;99.90;;;;;;4898620;29;20648;-80
2023/10/13 08:50:31;;;;;;;14.37;6.80;;;13.40;99.90;;;;;;4915341;29;20233;-79
2023/10/13 08:52:56;;;;;;;20.60;7.80;;;13.50;99.90;;;;;;4915496;29;20218;-78
2023/10/13 08:55:39;;;;;;;15.23;6.70;;;14.00;99.90;;;;;;4899629;29;20195;-78
2023/10/13 08:58:13;;;;;;;17.53;6.50;;;14.30;99.90;;;;;;4884134;29;20317;-80
2023/10/13 09:00:59;;;;;;;11.50;6.07;;;14.30;99.90;;;;;;4917774;29;20286;-80
2023/10/13 09:03:38;;;;;;;16.57;6.57;;;14.50;99.90;;;;;;4899560;29;20289;-84
2023/10/13 09:06:19;;;;;;;17.90;6.40;;;14.60;99.90;;;;;;4900741;29;20208;-79
2023/10/13 09:09:07;;;;;;;17.77;7.90;;;14.60;99.90;;;;;;4884200;29;20219;-78
2023/10/13 09:14:33;;;;;;;19.73;8.13;;;14.40;99.90;;;;;;4900469;29;20248;-80
2023/10/13 09:17:34;;;;;;;15.17;7.27;;;14.30;99.90;;;;;;4868966;29;20330;-79
2023/10/13 09:26:26;;;;;;;18.20;7.60;;;14.20;99.90;;;;;;4900930;29;20256;-85
2023/10/13 09:28:57;;;;;;;15.30;7.00;;;14.70;99.90;;;;;;4900950;29;20200;-84
2023/10/13 09:31:27;;;;;;;15.63;7.43;;;14.90;99.90;;;;;;4901119;29;20640;-85
2023/10/13 09:33:55;;;;;;;19.33;8.03;;;15.00;99.90;;;;;;4899673;29;20203;-86
2023/10/13 09:36:30;;;;;;;15.07;7.20;;;15.10;99.90;;;;;;4883783;29;20208;-85
2023/10/13 09:39:48;;;;;;;15.77;6.90;;;15.30;99.90;;;;;;4900609;29;20212;-80
2023/10/13 09:42:23;;;;;;;17.43;7.00;;;15.40;99.90;;;;;;4883976;29;20244;-79
2023/10/13 09:45:04;;;;;;;15.93;6.53;;;15.60;99.90;;;;;;4883133;29;20204;-85
2023/10/13 09:47:47;;;;;;;16.80;7.07;;;15.70;99.90;;;;;;4881708;29;20219;-80
2023/10/13 09:50:33;;;;;;;15.00;6.33;;;15.50;99.90;;;;;;4883099;29;20210;-84
2023/10/13 09:53:10;;;;;;;13.97;7.03;;;15.20;99.90;;;;;;4899203;29;20208;-78
2023/10/13 09:56:11;;;;;;;13.17;6.40;;;15.20;99.90;;;;;;4898839;29;20267;-83
2023/10/13 09:58:57;;;;;;;15.33;6.90;;;15.40;99.90;;;;;;4899273;29;20582;-79
2023/10/13 10:01:37;;;;;;;17.93;6.70;;;15.40;99.90;;;;;;4882435;29;20228;-77
2023/10/13 10:04:18;;;;;;;13.77;6.70;;;15.50;99.90;;;;;;4883973;29;20192;-84
2023/10/13 10:07:02;;;;;;;13.93;6.70;;;15.60;99.90;;;;;;4899904;29;20308;-84
2023/10/13 10:09:39;;;;;;;13.33;6.30;;;15.60;99.90;;;;;;4898957;29;20282;-78
2023/10/13 10:12:33;;;;;;;11.77;6.27;;;15.70;99.90;;;;;;4900203;29;20218;-84
2023/10/13 10:15:20;;;;;;;17.13;6.87;;;15.90;99.90;;;;;;4882337;29;20552;-83
2023/10/13 10:17:58;;;;;;;14.60;6.20;;;16.20;99.90;;;;;;4898152;29;20220;-82
2023/10/13 10:20:51;;;;;;;26.97;7.97;;;16.30;99.90;;;;;;4898081;29;20200;-80
2023/10/13 10:23:39;;;;;;;13.23;6.77;;;16.50;99.90;;;;;;4882909;29;20720;-85
2023/10/13 10:26:15;;;;;;;14.63;6.10;;;16.60;99.90;;;;;;4883085;29;20196;-78
2023/10/13 10:28:46;;;;;;;14.97;6.23;;;16.30;99.90;;;;;;4898632;29;20652;-79
2023/10/13 10:31:34;;;;;;;14.70;6.73;;;16.50;99.90;;;;;;4883922;29;20767;-84
2023/10/13 10:34:18;;;;;;;16.07;6.53;;;16.70;99.90;;;;;;4897216;29;20202;-80
2023/10/13 10:36:54;;;;;;;18.00;6.80;;;17.00;99.90;;;;;;4897986;29;20271;-78
2023/10/13 10:39:45;;;;;;;14.77;6.30;;;17.50;99.90;;;;;;4898824;29;20223;-83
2023/10/13 10:42:23;;;;;;;12.13;5.63;;;17.90;99.90;;;;;;4881881;29;20295;-78
2023/10/13 10:45:05;;;;;;;14.70;5.87;;;18.10;99.90;;;;;;4897486;29;20200;-80
2023/10/13 10:47:38;;;;;;;13.37;6.13;;;18.10;99.90;;;;;;4881957;29;20200;-84
2023/10/13 10:50:20;;;;;;;13.50;5.83;;;18.20;99.90;;;;;;4882376;29;20651;-83
2023/10/13 10:52:51;;;;;;;12.43;6.30;;;18.20;99.90;;;;;;4898820;29;20216;-83
2023/10/13 10:55:22;;;;;;;14.30;6.20;;;18.10;99.90;;;;;;4898619;29;20835;-82
2023/10/13 10:58:01;;;;;;;14.83;6.50;;;17.90;99.90;;;;;;4899140;29;20641;-80
2023/10/13 11:00:45;;;;;;;13.43;6.00;;;18.30;99.90;;;;;;4898661;29;20211;-78
2023/10/13 11:03:20;;;;;;;14.77;6.20;;;18.60;99.90;;;;;;4866940;29;20239;-84
2023/10/13 11:05:48;;;;;;;12.80;5.80;;;18.50;99.90;;;;;;4898432;29;20239;-83
2023/10/13 11:08:41;;;;;;;13.97;6.70;;;18.60;99.90;;;;;;4882423;29;20199;-79
2023/10/13 11:11:17;;;;;;;13.67;6.10;;;18.50;99.90;;;;;;4882663;29;20370;-85
2023/10/13 11:13:50;;;;;;;13.77;6.40;;;19.00;99.90;;;;;;4882038;29;20195;-83
2023/10/13 11:16:40;;;;;;;13.67;6.10;;;19.30;99.90;;;;;;4897040;29;20731;-77
2023/10/13 11:19:13;;;;;;;11.07;5.80;;;19.40;99.90;;;;;;4882229;29;20447;-77
2023/10/13 11:21:45;;;;;;;15.17;6.67;;;19.50;99.90;;;;;;4881407;29;20216;-78
2023/10/13 11:24:14;;;;;;;12.23;5.77;;;19.60;99.90;;;;;;4897581;29;20203;-80
2023/10/13 11:26:52;;;;;;;14.23;6.17;;;20.10;99.90;;;;;;4896925;29;20208;-83
2023/10/13 11:29:31;;;;;;;12.87;6.17;;;20.60;99.90;;;;;;4896674;29;20252;-79
2023/10/13 11:32:03;;;;;;;13.97;6.00;;;21.60;99.90;;;;;;4897612;29;20188;-80
2023/10/13 11:34:39;;;;;;;17.73;6.70;;;22.40;99.90;;;;;;4879969;29;20556;-79
2023/10/13 11:40:09;;;;;;;12.43;5.77;;;24.60;99.90;;;;;;4880652;29;20222;-83
2023/10/13 11:42:58;;;;;;;16.02;5.93;;;25.50;99.90;;;;;;4896782;29;20184;-79
2023/10/13 11:45:47;;;;;;;;;;;;;;;;;;;;;
2023/10/13 11:48:36;;;;;;;14.13;5.65;;;26.10;99.90;;;;;;4897313;29;20211;-85
2023/10/13 11:51:31;;;;;;;13.25;6.00;;;26.30;99.90;;;;;;4880946;29;20217;-79
2023/10/13 11:54:03;;;;;;;12.23;5.88;;;26.20;99.90;;;;;;4896293;29;20204;-79
2023/10/13 11:56:33;;;;;;;12.05;5.78;;;26.20;99.90;;;;;;4897455;29;20211;-78
2023/10/13 11:59:17;;;;;;;12.82;5.75;;;26.80;99.90;;;;;;4896418;29;20211;-78
2023/10/13 12:04:59;;;;;;;12.60;5.43;;;27.40;99.90;;;;;;4915278;29;20223;-81
2023/10/13 12:07:48;;;;;;;12.07;5.57;;;27.80;99.90;;;;;;4929720;29;20222;-81
2023/10/13 12:10:49;;;;;;;15.30;5.65;;;28.10;99.90;;;;;;4914577;29;20199;-80
2023/10/13 12:13:21;;;;;;;11.35;5.43;;;28.10;99.90;;;;;;4916330;29;20278;-82
2023/10/13 12:16:08;;;;;;;12.40;5.53;;;28.40;99.90;;;;;;4914630;29;20203;-83
2023/10/13 12:18:45;;;;;;;10.10;5.15;;;28.70;99.90;;;;;;4914748;29;20223;-83
2023/10/13 12:21:21;;;;;;;15.35;5.55;;;28.90;99.90;;;;;;4916256;29;20250;-79
2023/10/13 12:23:53;;;;;;;13.07;5.20;;;29.20;99.90;;;;;;4914587;29;20242;-77
2023/10/13 12:26:32;;;;;;;9.73;5.10;;;29.20;99.90;;;;;;4915837;29;20191;-78
2023/10/13 12:29:18;;;;;;;11.93;5.35;;;28.80;99.90;;;;;;4929410;29;20195;-78
2023/10/13 12:32:09;;;;;;;12.82;5.63;;;28.00;99.90;;;;;;4898449;29;20200;-78
2023/10/13 12:48:58;;;;;;;15.88;6.55;;;25.30;99.90;;;;;;4913809;29;20262;-77
2023/10/13 12:54:15;;;;;;;9.95;5.57;;;24.30;99.90;;;;;;4914931;29;20202;-77
2023/10/13 12:56:46;;;;;;;14.05;6.22;;;23.80;99.90;;;;;;4914521;29;20227;-77
2023/10/13 12:59:26;;;;;;;13.45;6.22;;;23.40;99.90;;;;;;4915061;29;20250;-81
2023/10/13 13:02:07;;;;;;;11.97;6.07;;;22.80;99.90;;;;;;4914609;29;20231;-78
2023/10/13 13:04:43;;;;;;;14.87;6.80;;;22.50;99.90;;;;;;4915116;29;20187;-78
2023/10/13 13:07:14;;;;;;;16.00;6.50;;;22.10;99.90;;;;;;4915193;29;20672;-78
2023/10/13 13:09:50;;;;;;;16.90;6.60;;;21.50;99.90;;;;;;4882278;29;20299;-78
2023/10/13 13:12:19;;;;;;;11.03;6.10;;;21.40;99.90;;;;;;4913088;29;20203;-78
2023/10/13 13:14:48;;;;;;;11.70;6.27;;;21.30;99.90;;;;;;4898083;29;20199;-79
2023/10/13 13:17:16;;;;;;;19.10;7.17;;;21.20;99.90;;;;;;4898227;29;20199;-80
2023/10/13 13:19:46;;;;;;;14.33;6.20;;;21.00;99.90;;;;;;4913465;29;20230;-78
2023/10/13 13:22:25;;;;;;;12.87;6.40;;;21.20;99.90;;;;;;4915071;29;20227;-79
2023/10/13 13:24:55;;;;;;;14.37;6.47;;;20.80;99.90;;;;;;4914315;29;20187;-80
2023/10/13 13:27:27;;;;;;;14.03;6.23;;;20.80;99.90;;;;;;4915024;29;20223;-79
2023/10/13 13:30:02;;;;;;;14.03;6.27;;;20.80;99.90;;;;;;4915171;29;20278;-80
2023/10/13 13:32:40;;;;;;;14.50;6.53;;;20.80;99.90;;;;;;4915527;29;20195;-79
2023/10/13 13:35:19;;;;;;;17.73;6.57;;;20.80;99.90;;;;;;4884030;29;20231;-81
2023/10/13 13:38:16;;;;;;;15.63;6.83;;;20.80;99.90;;;;;;4913993;29;20239;-79
2023/10/13 13:40:48;;;;;;;16.10;6.87;;;21.10;99.90;;;;;;4898093;29;20270;-80
2023/10/13 13:43:50;;;;;;;12.43;6.33;;;20.80;99.90;;;;;;4899158;29;20198;-77
2023/10/13 13:46:27;;;;;;;14.73;6.70;;;20.60;99.90;;;;;;4901225;29;20655;-78
2023/10/13 13:49:07;;;;;;;12.10;6.30;;;20.30;99.90;;;;;;4916657;29;20196;-80
2023/10/13 13:51:39;;;;;;;17.40;6.57;;;20.20;99.90;;;;;;4902932;29;20254;-77
2023/10/13 13:54:10;;;;;;;11.90;5.87;;;20.10;99.90;;;;;;4918458;29;20271;-80
2023/10/13 13:56:51;;;;;;;14.40;6.93;;;20.00;99.90;;;;;;4901646;29;20294;-84
2023/10/13 13:59:45;;;;;;;11.30;6.10;;;19.80;99.90;;;;;;4917256;29;20239;-79
2023/10/13 14:02:29;;;;;;;14.40;5.80;;;19.80;99.90;;;;;;4922684;29;20238;-79
2023/10/13 14:04:58;;;;;;;14.37;6.67;;;19.70;99.90;;;;;;4916569;29;20305;-80
2023/10/13 14:07:42;;;;;;;13.17;6.77;;;19.70;99.90;;;;;;4931318;29;20639;-78
2023/10/13 14:10:32;;;;;;;18.73;7.27;;;19.60;99.90;;;;;;4931401;29;20639;-80
2023/10/13 14:13:12;;;;;;;17.20;7.37;;;19.50;99.90;;;;;;4915988;29;20270;-77
2023/10/13 14:15:56;;;;;;;18.17;7.63;;;19.50;99.90;;;;;;4930624;29;20188;-80
2023/10/13 14:18:30;;;;;;;13.83;7.10;;;19.30;99.90;;;;;;4915203;29;20231;-78
2023/10/13 14:21:03;;;;;;;15.53;6.83;;;19.20;99.90;;;;;;4915745;29;20220;-75
2023/10/13 14:23:53;;;;;;;19.00;7.90;;;19.20;99.90;;;;;;4915771;29;20196;-78
2023/10/13 14:26:28;;;;;;;15.67;7.20;;;19.20;99.90;;;;;;4899855;29;20294;-78
2023/10/13 14:29:05;;;;;;;20.17;8.33;;;19.10;99.90;;;;;;4917107;29;20266;-81
2023/10/13 14:31:39;;;;;;;16.80;7.53;;;19.00;99.90;;;;;;4931842;29;20211;-77
2023/10/13 14:34:07;;;;;;;16.10;7.77;;;19.00;99.90;;;;;;4931965;29;20659;-80
2023/10/13 14:36:51;;;;;;;13.97;7.30;;;18.90;99.90;;;;;;4903007;29;20218;-82
2023/10/13 14:39:29;;;;;;;15.67;7.23;;;19.00;99.90;;;;;;4931564;29;20235;-81
2023/10/13 14:42:27;;;;;;;14.37;7.33;;;18.90;99.90;;;;;;4917293;29;20247;-82
2023/10/13 14:45:16;;;;;;;13.73;7.60;;;18.90;99.90;;;;;;4902918;29;20196;-78
2023/10/13 14:47:47;;;;;;;20.63;7.93;;;18.80;99.90;;;;;;4915843;29;20691;-76
2023/10/13 14:50:22;;;;;;;17.90;7.90;;;18.80;99.90;;;;;;4916028;29;20681;-81
2023/10/13 14:53:01;;;;;;;15.80;8.00;;;18.90;99.90;;;;;;4917189;29;20218;-78
2023/10/13 14:55:39;;;;;;;14.50;8.27;;;18.90;99.90;;;;;;4916361;29;20195;-78
2023/10/13 14:58:16;;;;;;;14.83;8.03;;;18.90;99.90;;;;;;4916657;29;20191;-78
2023/10/13 15:00:54;;;;;;;18.73;7.97;;;18.90;99.90;;;;;;4917074;29;20526;-79
2023/10/13 15:03:23;;;;;;;15.37;7.77;;;18.70;99.90;;;;;;4916895;29;20235;-80
2023/10/13 15:05:55;;;;;;;18.70;8.47;;;18.80;99.90;;;;;;4901644;29;20653;-79
2023/10/13 15:08:27;;;;;;;16.43;7.63;;;18.90;99.90;;;;;;4917147;29;20238;-84
2023/10/13 15:10:55;;;;;;;14.73;7.63;;;18.80;99.90;;;;;;4883902;29;20203;-85
2023/10/13 15:13:23;;;;;;;17.80;8.00;;;18.80;99.90;;;;;;4915418;29;20238;-83
2023/10/13 15:16:16;;;;;;;18.80;8.50;;;18.80;99.90;;;;;;4900991;29;20257;-79
2023/10/13 15:18:55;;;;;;;29.03;9.70;;;18.70;99.90;;;;;;4899750;29;20570;-84
2023/10/13 15:21:34;;;;;;;15.60;8.53;;;18.60;99.90;;;;;;4915585;29;20262;-80
2023/10/13 15:24:16;;;;;;;15.87;9.13;;;18.60;99.90;;;;;;4883739;29;20251;-80
2023/10/13 15:27:08;;;;;;;13.47;8.23;;;18.50;99.90;;;;;;4915829;29;20198;-81
2023/10/13 15:29:38;;;;;;;22.07;9.50;;;18.50;99.90;;;;;;4899301;29;20195;-80
2023/10/13 15:34:45;;;;;;;16.17;9.40;;;18.30;99.90;;;;;;4917015;29;20665;-81
2023/10/13 15:37:15;;;;;;;18.77;8.80;;;18.40;99.90;;;;;;4899374;29;20223;-79
2023/10/13 15:39:43;;;;;;;14.77;9.37;;;18.30;99.90;;;;;;4916525;29;20251;-80
2023/10/13 15:42:14;;;;;;;15.27;9.13;;;18.30;99.90;;;;;;4916130;29;20202;-79
2023/10/13 15:44:43;;;;;;;20.90;9.87;;;18.20;99.90;;;;;;4899295;29;20294;-81
2023/10/13 15:47:14;;;;;;;15.87;8.70;;;18.30;99.90;;;;;;4899300;29;20195;-81
2023/10/13 15:49:50;;;;;;;18.77;9.33;;;18.20;99.90;;;;;;4916407;29;20180;-80
2023/10/13 15:52:20;;;;;;;15.27;8.87;;;18.20;99.90;;;;;;4899415;29;20271;-80
2023/10/13 15:55:04;;;;;;;17.43;9.00;;;18.20;99.90;;;;;;4916197;29;20188;-80
2023/10/13 15:57:37;;;;;;;19.60;9.77;;;18.30;99.90;;;;;;4899762;29;20238;-79
2023/10/13 16:00:23;;;;;;;17.17;9.40;;;18.40;99.90;;;;;;4898339;29;20227;-78
2023/10/13 16:02:54;;;;;;;17.07;9.60;;;18.00;99.90;;;;;;4899760;29;20232;-79
2023/10/13 16:05:35;;;;;;;20.47;9.50;;;18.10;99.90;;;;;;4880818;29;20203;-79
2023/10/13 16:08:11;;;;;;;16.33;9.73;;;18.00;99.90;;;;;;4879448;29;20200;-78
2023/10/13 16:10:40;;;;;;;17.87;9.57;;;18.00;99.90;;;;;;4880323;29;20214;-78
2023/10/13 16:13:15;;;;;;;17.60;9.63;;;18.00;99.90;;;;;;4896020;29;20597;-78
2023/10/13 16:15:55;;;;;;;15.03;8.53;;;18.00;99.90;;;;;;4881063;29;20208;-80
2023/10/13 16:18:29;;;;;;;18.67;9.33;;;17.90;99.90;;;;;;4897323;29;20271;-79
2023/10/13 16:21:04;;;;;;;20.53;9.23;;;17.90;99.90;;;;;;4897187;29;20220;-78
2023/10/13 16:23:34;;;;;;;21.43;9.93;;;17.90;99.90;;;;;;4880326;29;20192;-78
2023/10/13 16:26:07;;;;;;;20.30;9.63;;;17.90;99.90;;;;;;4897344;29;20224;-80
2023/10/13 16:29:17;;;;;;;18.53;9.80;;;17.90;99.90;;;;;;4894263;29;20208;-79
2023/10/13 16:31:52;;;;;;;18.80;9.77;;;17.90;99.90;;;;;;4897516;29;20207;-78
2023/10/13 16:34:21;;;;;;;18.00;9.93;;;17.80;99.90;;;;;;4897291;29;20267;-78
2023/10/13 16:36:55;;;;;;;18.27;9.60;;;17.80;99.90;;;;;;4895832;29;20733;-78
2023/10/13 16:39:28;;;;;;;18.13;9.87;;;17.80;99.90;;;;;;4897112;29;20259;-78
2023/10/13 16:42:00;;;;;;;16.23;9.57;;;17.70;99.90;;;;;;4879774;29;20232;-79
2023/10/13 16:44:28;;;;;;;19.23;10.03;;;17.70;99.90;;;;;;4880275;29;20219;-81
2023/10/13 16:47:01;;;;;;;18.17;9.63;;;17.60;99.90;;;;;;4879733;29;20200;-79
2023/10/13 16:49:30;;;;;;;20.43;9.93;;;17.50;99.90;;;;;;4895568;29;20192;-80
2023/10/13 16:52:00;;;;;;;19.10;10.07;;;17.50;99.90;;;;;;4879726;29;20228;-79
2023/10/13 16:54:31;;;;;;;18.10;10.00;;;17.60;99.90;;;;;;4879911;29;20710;-81
2023/10/13 16:57:03;;;;;;;17.97;10.00;;;17.50;99.90;;;;;;4896713;29;20196;-79
2023/10/13 16:59:36;;;;;;;21.47;10.63;;;17.50;99.90;;;;;;4880178;29;20216;-79
2023/10/13 17:02:06;;;;;;;17.53;9.93;;;17.50;99.90;;;;;;4903945;29;20275;-78
2023/10/13 17:04:36;;;;;;;17.70;9.93;;;17.30;99.90;;;;;;4915809;29;20250;-82
2023/10/13 17:07:07;;;;;;;16.47;10.03;;;17.40;99.90;;;;;;4883059;29;20232;-80
2023/10/13 17:09:38;;;;;;;19.03;10.27;;;17.30;99.90;;;;;;4914538;29;20604;-80
2023/10/13 17:12:06;;;;;;;18.77;9.83;;;17.30;99.90;;;;;;4882484;29;20210;-80
2023/10/13 17:14:34;;;;;;;16.63;9.67;;;17.30;99.90;;;;;;4882276;29;20290;-81
2023/10/13 17:17:05;;;;;;;17.97;9.80;;;17.20;99.90;;;;;;4915717;29;20192;-80
2023/10/13 17:19:43;;;;;;;20.37;10.30;;;17.30;99.90;;;;;;4917016;29;20230;-81
2023/10/13 17:22:23;;;;;;;17.83;10.57;;;17.30;99.90;;;;;;4903396;29;20215;-81
2023/10/13 17:25:12;;;;;;;16.10;9.70;;;17.30;99.90;;;;;;4886897;29;20251;-81
2023/10/13 17:27:46;;;;;;;14.83;9.43;;;17.30;99.90;;;;;;4917946;29;20196;-81
2023/10/13 17:30:23;;;;;;;19.97;10.70;;;17.30;99.90;;;;;;4901949;29;20232;-81
2023/10/13 17:32:55;;;;;;;19.83;10.47;;;17.30;99.90;;;;;;4917764;29;20211;-80
2023/10/13 17:35:40;;;;;;;19.57;10.67;;;17.30;99.90;;;;;;4918245;29;20266;-82
2023/10/13 17:38:09;;;;;;;19.30;10.53;;;17.20;99.90;;;;;;4902164;29;20206;-82
2023/10/13 17:40:42;;;;;;;16.80;9.87;;;17.20;99.90;;;;;;4918459;29;20260;-81
2023/10/13 17:43:09;;;;;;;20.03;10.93;;;17.20;99.90;;;;;;4901494;29;20224;-79
2023/10/13 17:45:37;;;;;;;21.17;11.27;;;17.20;99.90;;;;;;4902355;29;20206;-81
2023/10/13 17:48:06;;;;;;;22.13;11.03;;;17.00;99.90;;;;;;4886715;29;20558;-79
2023/10/13 17:50:35;;;;;;;21.70;11.30;;;17.20;99.90;;;;;;4919081;29;20454;-79
2023/10/13 17:53:12;;;;;;;20.40;11.57;;;17.20;99.90;;;;;;4918914;29;20206;-79
2023/10/13 17:55:42;;;;;;;23.33;12.00;;;17.10;99.90;;;;;;4886155;29;20246;-79
2023/10/13 17:58:11;;;;;;;19.90;11.10;;;17.10;99.90;;;;;;4886028;29;20242;-79
2023/10/13 18:00:38;;;;;;;18.00;11.10;;;17.10;99.90;;;;;;4885416;29;20227;-79
2023/10/13 18:03:11;;;;;;;20.30;11.23;;;17.10;99.90;;;;;;4929369;29;20247;-79
2023/10/13 18:05:39;;;;;;;21.07;12.00;;;17.00;99.90;;;;;;4917742;29;20239;-80
2023/10/13 18:08:08;;;;;;;18.73;11.70;;;17.00;99.90;;;;;;4901341;29;20568;-80
2023/10/13 18:10:43;;;;;;;20.50;12.07;;;17.00;99.90;;;;;;4917265;29;20219;-80
2023/10/13 18:13:12;;;;;;;21.23;12.60;;;17.00;99.90;;;;;;4918483;29;20247;-78
2023/10/13 18:15:43;;;;;;;20.13;11.50;;;17.00;99.90;;;;;;4917421;29;20216;-79
2023/10/13 18:18:13;;;;;;;23.40;12.23;;;17.00;99.90;;;;;;4915886;29;20203;-79
2023/10/13 18:20:42;;;;;;;19.80;12.13;;;17.00;99.90;;;;;;4916986;29;20674;-78
2023/10/13 18:23:22;;;;;;;18.43;11.70;;;17.00;99.90;;;;;;4916244;29;20290;-77
2023/10/13 18:25:52;;;;;;;19.30;11.20;;;16.90;99.90;;;;;;4917680;29;20199;-79
2023/10/13 18:28:20;;;;;;;20.90;12.10;;;16.90;99.90;;;;;;4932490;29;20674;-81
2023/10/13 18:30:57;;;;;;;20.70;11.53;;;16.90;99.90;;;;;;4917105;29;20274;-80
2023/10/13 18:33:38;;;;;;;22.40;12.10;;;16.80;99.90;;;;;;4916543;29;20207;-80
2023/10/13 18:36:17;;;;;;;22.60;12.57;;;16.90;99.90;;;;;;4916746;29;20216;-81
2023/10/13 18:38:51;;;;;;;18.70;11.83;;;16.80;99.90;;;;;;4916413;29;20729;-82
2023/10/13 18:41:23;;;;;;;21.10;12.23;;;16.80;99.90;;;;;;4915737;29;20229;-82
2023/10/13 18:43:56;;;;;;;21.10;12.57;;;16.70;99.90;;;;;;4932541;29;20204;-82
2023/10/13 18:46:32;;;;;;;20.77;12.40;;;16.80;99.90;;;;;;4916138;29;20239;-79
2023/10/13 18:49:06;;;;;;;19.97;11.87;;;16.80;99.90;;;;;;4915997;29;20260;-78
2023/10/13 18:51:36;;;;;;;21.37;12.60;;;16.60;99.90;;;;;;4917319;29;20217;-82
2023/10/13 18:54:07;;;;;;;17.57;11.50;;;16.80;99.90;;;;;;4917424;29;20563;-83
2023/10/13 18:56:36;;;;;;;21.37;12.47;;;16.80;99.90;;;;;;4916290;29;20615;-79
2023/10/13 18:59:04;;;;;;;20.53;12.33;;;16.70;99.90;;;;;;4917356;29;20196;-78
2023/10/13 19:01:34;;;;;;;18.93;12.20;;;16.90;99.90;;;;;;4916213;29;20240;-81
2023/10/13 19:04:11;;;;;;;20.43;12.67;;;16.90;99.90;;;;;;4901038;29;20199;-81
2023/10/13 19:06:41;;;;;;;21.27;12.60;;;16.90;99.90;;;;;;4825068;29;20226;-79
2023/10/13 19:09:21;;;;;;;21.97;12.50;;;16.80;99.90;;;;;;4840290;29;20711;-82
2023/10/13 19:11:55;;;;;;;23.10;12.43;;;16.80;99.90;;;;;;4825523;29;20198;-82
2023/10/13 19:14:24;;;;;;;20.63;12.47;;;16.80;99.90;;;;;;4840036;29;20199;-84
2023/10/13 19:16:57;;;;;;;22.97;12.50;;;16.70;99.90;;;;;;4825411;29;20299;-79
2023/10/13 19:19:32;;;;;;;19.40;12.00;;;16.70;99.90;;;;;;4839709;29;20216;-78
2023/10/13 19:22:00;;;;;;;20.70;12.90;;;16.80;99.90;;;;;;4839903;29;20237;-79
2023/10/13 19:24:33;;;;;;;20.57;12.67;;;16.70;99.90;;;;;;4839473;29;20289;-81
2023/10/13 19:27:02;;;;;;;20.63;12.37;;;16.70;99.90;;;;;;4839472;29;20288;-80
2023/10/13 19:29:32;;;;;;;22.20;12.47;;;16.70;99.90;;;;;;4824449;29;20205;-79
2023/10/13 19:32:02;;;;;;;20.00;12.27;;;16.70;99.90;;;;;;4900596;29;20488;-79
2023/10/13 19:34:30;;;;;;;20.97;12.57;;;16.70;99.90;;;;;;4899040;29;20270;-83
2023/10/13 19:37:04;;;;;;;19.63;12.37;;;16.70;99.90;;;;;;4916169;29;20236;-79
2023/10/13 19:39:45;;;;;;;21.50;12.30;;;16.80;99.90;;;;;;4898843;29;20223;-79
2023/10/13 19:42:18;;;;;;;19.37;12.47;;;16.70;99.90;;;;;;4916031;29;20188;-78
2023/10/13 19:44:52;;;;;;;19.80;12.37;;;16.70;99.90;;;;;;4898216;29;20203;-81
2023/10/13 19:47:25;;;;;;;18.10;11.27;;;16.70;99.90;;;;;;4914889;29;20211;-82
2023/10/13 19:49:52;;;;;;;21.23;11.90;;;16.70;99.90;;;;;;4915892;29;20513;-81
2023/10/13 19:52:23;;;;;;;18.53;11.43;;;16.70;99.90;;;;;;4916050;29;20661;-80
2023/10/13 19:54:52;;;;;;;17.50;11.33;;;16.70;99.90;;;;;;4899032;29;20240;-81
2023/10/13 19:57:19;;;;;;;17.97;11.87;;;16.70;99.90;;;;;;4916337;29;20219;-82
2023/10/13 19:59:50;;;;;;;20.70;11.30;;;16.70;99.90;;;;;;4915680;29;20214;-82
2023/10/13 20:02:21;;;;;;;18.17;11.33;;;16.80;99.90;;;;;;4915664;29;20629;-78
2023/10/13 20:04:51;;;;;;;21.07;11.17;;;16.70;99.90;;;;;;4916451;29;20265;-83
2023/10/13 20:07:26;;;;;;;18.63;11.07;;;16.70;99.90;;;;;;4898406;29;20310;-80
2023/10/13 20:09:54;;;;;;;18.47;11.53;;;16.70;99.90;;;;;;4915791;29;20578;-80
2023/10/13 20:12:25;;;;;;;21.17;11.70;;;16.70;99.90;;;;;;4884801;29;20207;-78
2023/10/13 20:14:55;;;;;;;19.07;11.20;;;16.80;99.90;;;;;;4899044;29;20207;-79
2023/10/13 20:17:31;;;;;;;21.10;11.10;;;16.80;99.90;;;;;;4899320;29;20209;-80
2023/10/13 20:20:01;;;;;;;20.67;10.70;;;16.50;99.90;;;;;;4916194;29;20292;-81
2023/10/13 20:22:29;;;;;;;17.80;10.57;;;16.70;99.90;;;;;;4916027;29;20239;-80
2023/10/13 20:25:00;;;;;;;19.97;10.97;;;16.70;99.90;;;;;;4898952;29;20617;-80
2023/10/13 20:27:28;;;;;;;20.50;11.07;;;16.70;99.90;;;;;;4899013;29;20253;-81
2023/10/13 20:30:08;;;;;;;24.87;11.07;;;16.70;99.90;;;;;;4915468;29;20686;-78
2023/10/13 20:32:36;;;;;;;16.27;10.23;;;16.70;99.90;;;;;;4898492;29;20199;-81
2023/10/13 20:35:05;;;;;;;18.20;10.73;;;16.70;99.90;;;;;;4915365;29;20254;-82
2023/10/13 20:37:33;;;;;;;19.37;11.10;;;16.70;99.90;;;;;;4915376;29;20259;-81
2023/10/13 20:40:18;;;;;;;16.73;10.60;;;16.70;99.90;;;;;;4915449;29;20266;-82
2023/10/13 20:42:49;;;;;;;16.73;10.03;;;16.60;99.90;;;;;;4899132;29;20198;-77
2023/10/13 20:45:24;;;;;;;17.47;10.77;;;16.60;99.90;;;;;;4914074;29;20258;-80
2023/10/13 20:47:55;;;;;;;19.30;10.70;;;16.80;99.90;;;;;;4915459;29;20252;-78
2023/10/13 20:50:35;;;;;;;16.70;9.93;;;16.60;99.90;;;;;;4915629;29;20232;-79
2023/10/13 20:53:08;;;;;;;20.20;11.40;;;16.50;99.90;;;;;;4898597;29;20278;-79
2023/10/13 20:56:33;;;;;;;20.10;10.33;;;16.50;99.90;;;;;;4900688;29;20207;-82
2023/10/13 20:59:08;;;;;;;16.90;10.87;;;16.60;99.90;;;;;;4918360;29;20615;-79
2023/10/13 21:01:36;;;;;;;16.43;10.40;;;16.60;99.90;;;;;;4902313;29;20249;-79
2023/10/13 21:04:05;;;;;;;14.97;10.23;;;16.60;99.90;;;;;;4919226;29;20202;-78
2023/10/13 21:06:39;;;;;;;18.63;10.43;;;16.60;99.90;;;;;;4918854;29;20237;-82
2023/10/13 21:09:20;;;;;;;19.77;10.10;;;16.60;99.90;;;;;;4932937;29;20288;-83
2023/10/13 21:11:50;;;;;;;18.40;10.30;;;16.60;99.90;;;;;;4902517;29;20199;-81